Rockdale, TX

4:37 PM CDT on October 23, 2014 (GMT -0500)
KTXROCKD4 | Change Station
CLOSE
Current Station
Personal Weather Station
Location: Rockdale, TX
Elevation: 500 ft
Nearby Weather Stations

Elev 500 ft 30.56 °N, 97.07 °W | Updated 2 minutes ago

Partly Cloudy
Partly Cloudy
79.4 °F
Feels Like 80 °F
N
2.0
Wind Variable Wind from North
Gusts 4.0 mph

Today
High -- | Low -- °F
--% Chance of Precip.
Yesterday
High -- | Low -- °F
Precip. -- in
7:36 AM 6:48 PM
Waning Crescent, 0% visible
Pressure 30.07 in
Visibility 4.0 miles
Clouds Clear
Heat Index 80 °F
Dew Point 57 °F
Humidity 47%
Rainfall 0.00 in
Snow Depth Not available.
UV 3 out of 12
Pollen 5.40 out of 12
Air Quality Not available.
Flu Activity Sporadic
METAR KT35 232115Z AUTO 10004KT 4SM HZ CLR 27/14 A3007 RMK AO2 T02670141

More Conditions Fewer Conditions

Pressure 30.07 in
Visibility 4.0 miles
Clouds Clear
Heat Index 80 °F
Dew Point 57 °F
Humidity 47%
Rainfall 0.00 in
Snow Depth Not available.
UV 3 out of 12
Pollen 5.40 out of 12
Air Quality Not available.
Flu Activity Sporadic
METAR KT35 232115Z AUTO 10004KT 4SM HZ CLR 27/14 A3007 RMK AO2 T02670141

More Conditions Fewer Conditions

10-Day Weather Forecast

Almanac

Astronomy

Oct. 23, 2014 Rise Set
Actual Time 7:36 AM CDT 6:48 PM CDT
Civil Twilight 7:11 AM CDT 7:12 PM CDT
Nautical Twilight 6:43 AM CDT 7:40 PM CDT
Astronomical Twilight 6:15 AM CDT 8:08 PM CDT
Moon 7:18 AM CDT 6:50 PM CDT
Length of Visible Light 12h 01m
Length of Day
11h 12m
Tomorrow will be 1m 42s shorter.
Waning Crescent, 0% of the Moon is Illuminated
Today
Waning Crescent
Oct 23
New
Oct 30
First Quarter
Nov 6
Full
Nov 14
Last Quarter

Today's Extremes

State Highs State Lows

Community

WunderPhotos

Upload Photos

1,764,379 photos uploaded!

WunderBlogs® & News

Nearby

Snow Depth

Station Depth Elevation
No new snow has been reported.

Earthquake Activity

City Distance Mag. Time & Date
No recent earthquake activity has been reported nearby.
Minimum magnitude displayed is 2.5.

Coastal Water Temperatures

Place Temperature
No Stations Reporting

Nearby Weather Stations